Time;durP1;ratioP1;P1;durP2;ratioP2;P2;SDS_P1;SDS_P2;PMS_P1;PMS_P2;Temp;Humidity;BMP_temperature;BMP_pressure;BME280_temperature;BME280_humidity;BME280_pressure;Samples;Min_cycle;Max_cycle;Signal;HPM_P1;HPM_P2
2023/09/19 00:01:00;;;;;;;;;;;22.60;1.00;;;;;;4956321;29;19982;-58
2023/09/19 00:03:28;;;;;;;;;;;22.60;1.00;;;;;;4956274;29;19927;-59
2023/09/19 00:05:57;;;;;;;;;;;22.60;1.00;;;;;;4956174;29;20135;-59
2023/09/19 00:08:24;;;;;;;;;;;22.60;1.00;;;;;;4956011;29;19927;-59
2023/09/19 00:10:51;;;;;;;;;;;22.60;1.00;;;;;;4956220;29;19934;-59
2023/09/19 00:13:18;;;;;;;;;;;22.60;1.00;;;;;;4956089;29;19935;-57
2023/09/19 00:18:42;;;;;;;;;;;22.60;1.00;;;;;;5121041;23;19934;-58
2023/09/19 00:21:10;;;;;;;;;;;22.60;1.00;;;;;;4955689;29;20350;-57
2023/09/19 00:23:37;;;;;;;;;;;22.50;1.00;;;;;;4953969;28;19926;-59
2023/09/19 00:26:04;;;;;;;;;;;22.50;1.00;;;;;;4968154;28;20334;-59
2023/09/19 00:28:31;;;;;;;;;;;22.50;1.00;;;;;;4955696;29;19926;-57
2023/09/19 00:31:01;;;;;;;;;;;22.50;1.00;;;;;;4935365;29;19941;-58
2023/09/19 00:33:31;;;;;;;;;;;22.50;1.00;;;;;;4955712;29;19926;-59
2023/09/19 00:35:58;;;;;;;;;;;22.50;1.00;;;;;;4955508;29;19926;-57
2023/09/19 00:38:26;;;;;;;;;;;22.50;1.00;;;;;;4955281;28;20470;-57
2023/09/19 00:40:54;;;;;;;;;;;22.50;1.00;;;;;;4954487;29;19926;-59
2023/09/19 00:43:24;;;;;;;;;;;22.50;1.00;;;;;;4954212;29;19926;-59
2023/09/19 00:45:53;;;;;;;;;;;22.50;1.00;;;;;;4955392;28;19981;-59
2023/09/19 00:51:03;;;;;;;;;;;22.40;1.00;;;;;;4954282;28;19981;-58
2023/09/19 00:53:30;;;;;;;;;;;22.50;1.00;;;;;;4946269;29;19969;-58
2023/09/19 00:55:57;;;;;;;;;;;22.40;1.00;;;;;;4953891;29;20421;-58
2023/09/19 00:58:24;;;;;;;;;;;22.40;1.00;;;;;;4955383;29;19930;-58
2023/09/19 01:00:53;;;;;;;;;;;22.40;1.00;;;;;;4953942;29;19933;-58
2023/09/19 01:03:20;;;;;;;;;;;22.40;1.00;;;;;;4955151;28;20335;-58
2023/09/19 01:05:47;;;;;;;;;;;22.40;1.00;;;;;;4953782;29;19950;-58
2023/09/19 01:08:14;;;;;;;;;;;22.40;1.00;;;;;;4953617;29;19927;-58
2023/09/19 01:10:46;;;;;;;;;;;22.40;1.00;;;;;;4953928;29;19926;-59
2023/09/19 01:13:31;;;;;;;;;;;22.40;1.00;;;;;;4953794;29;19934;-58
2023/09/19 01:16:31;;;;;;;;;;;22.40;1.00;;;;;;4955004;29;19933;-58
2023/09/19 01:19:16;;;;;;;;;;;22.40;1.00;;;;;;4948546;28;20005;-59
2023/09/19 01:21:43;;;;;;;;;;;22.40;1.00;;;;;;4940749;29;19926;-59
2023/09/19 01:24:22;;;;;;;;;;;22.40;1.00;;;;;;4953728;29;19927;-58
2023/09/19 01:27:25;;;;;;;;;;;22.40;1.00;;;;;;4953398;29;19926;-59
2023/09/19 01:29:53;;;;;;;;;;;22.40;1.00;;;;;;4914445;29;20367;-59
2023/09/19 01:32:21;;;;;;;;;;;22.30;1.00;;;;;;4947124;29;19937;-59
2023/09/19 01:34:52;;;;;;;;;;;22.30;1.00;;;;;;4953183;28;20358;-59
2023/09/19 01:37:20;;;;;;;;;;;22.30;1.00;;;;;;4954635;28;19976;-58
2023/09/19 01:39:48;;;;;;;;;;;22.30;1.00;;;;;;4954659;29;19933;-59
2023/09/19 01:42:30;;;;;;;;;;;22.30;1.00;;;;;;4945334;29;19930;-58
2023/09/19 01:45:00;;;;;;;;;;;22.30;1.00;;;;;;4953693;29;19934;-59
2023/09/19 01:47:32;;;;;;;;;;;22.30;1.00;;;;;;4952834;29;19977;-59
2023/09/19 01:50:06;;;;;;;;;;;22.30;1.00;;;;;;5046037;22;20963;-60
2023/09/19 01:52:36;;;;;;;;;;;22.30;1.00;;;;;;4988644;28;19926;-60
2023/09/19 01:55:07;;;;;;;;;;;22.30;1.00;;;;;;4973690;28;19926;-60
2023/09/19 01:57:46;;;;;;;;;;;22.30;1.00;;;;;;4973114;28;20404;-60
2023/09/19 02:00:14;;;;;;;;;;;22.30;1.00;;;;;;4972441;28;19926;-58
2023/09/19 02:02:44;;;;;;;;;;;22.20;1.00;;;;;;4972266;28;19926;-59
2023/09/19 02:05:12;;;;;;;;;;;22.20;1.00;;;;;;4972433;28;20457;-60
2023/09/19 02:07:40;;;;;;;;;;;22.20;1.00;;;;;;4971954;28;19941;-59
2023/09/19 02:10:07;;;;;;;;;;;22.20;1.00;;;;;;4972404;28;19932;-59
2023/09/19 02:12:35;;;;;;;;;;;22.20;1.00;;;;;;4971962;28;19992;-60
2023/09/19 02:15:03;;;;;;;;;;;22.20;1.00;;;;;;4972097;28;20429;-60
2023/09/19 02:17:31;;;;;;;;;;;22.20;1.00;;;;;;4971650;28;20440;-60
2023/09/19 02:20:03;;;;;;;;;;;22.20;1.00;;;;;;4973104;28;19930;-60
2023/09/19 02:22:30;;;;;;;;;;;22.20;1.00;;;;;;4964209;28;20390;-59
2023/09/19 02:25:00;;;;;;;;;;;22.20;1.00;;;;;;4973235;28;19949;-60
2023/09/19 02:27:27;;;;;;;;;;;22.10;1.00;;;;;;4972720;28;19984;-59
2023/09/19 02:29:54;;;;;;;;;;;22.10;1.00;;;;;;4972012;28;19965;-59
2023/09/19 02:32:20;;;;;;;;;;;22.10;1.00;;;;;;4972085;28;20009;-59
2023/09/19 02:34:48;;;;;;;;;;;22.10;1.00;;;;;;4972015;28;20297;-59
2023/09/19 02:37:16;;;;;;;;;;;22.10;1.00;;;;;;4972762;28;19969;-58
2023/09/19 02:39:43;;;;;;;;;;;22.10;1.00;;;;;;4973064;28;19933;-59
2023/09/19 02:42:11;;;;;;;;;;;22.10;1.00;;;;;;4973137;28;19934;-60
2023/09/19 02:44:38;;;;;;;;;;;22.10;1.00;;;;;;4973097;28;19933;-59
2023/09/19 02:47:05;;;;;;;;;;;22.10;1.00;;;;;;4973599;28;19926;-59
2023/09/19 02:49:32;;;;;;;;;;;22.10;1.00;;;;;;4976820;28;19930;-60
2023/09/19 02:51:59;;;;;;;;;;;22.10;1.00;;;;;;5141725;23;20361;-59
2023/09/19 02:54:26;;;;;;;;;;;22.10;1.00;;;;;;4959595;28;19933;-59
2023/09/19 02:56:54;;;;;;;;;;;22.10;1.00;;;;;;4959075;28;19932;-59
2023/09/19 02:59:20;;;;;;;;;;;22.10;1.00;;;;;;4976672;28;20298;-59
2023/09/19 03:01:48;;;;;;;;;;;22.10;1.00;;;;;;4956213;29;20374;-59
2023/09/19 03:04:19;;;;;;;;;;;22.00;1.00;;;;;;4955899;28;19926;-59
2023/09/19 03:06:51;;;;;;;;;;;22.00;1.00;;;;;;4956046;29;20025;-58
2023/09/19 03:09:19;;;;;;;;;;;22.00;1.00;;;;;;4955908;28;19962;-58
2023/09/19 03:11:47;;;;;;;;;;;22.00;1.00;;;;;;4956418;29;20298;-59
2023/09/19 03:14:15;;;;;;;;;;;22.00;1.00;;;;;;4955434;28;19949;-59
2023/09/19 03:16:42;;;;;;;;;;;22.00;1.00;;;;;;4958740;28;20018;-59
2023/09/19 03:19:10;;;;;;;;;;;22.00;1.00;;;;;;4955794;29;20021;-59
2023/09/19 03:21:38;;;;;;;;;;;22.00;1.00;;;;;;5071534;23;20403;-59
2023/09/19 03:24:05;;;;;;;;;;;22.00;1.00;;;;;;4915596;29;19927;-59
2023/09/19 03:26:33;;;;;;;;;;;22.00;1.00;;;;;;4920505;29;20410;-59
2023/09/19 03:29:06;;;;;;;;;;;22.00;1.00;;;;;;4920771;29;19931;-59
2023/09/19 03:31:33;;;;;;;;;;;22.00;1.00;;;;;;4920603;29;19966;-59
2023/09/19 03:34:00;;;;;;;;;;;22.00;1.00;;;;;;4920948;29;20013;-59
2023/09/19 03:36:28;;;;;;;;;;;22.00;1.00;;;;;;4920511;29;19927;-59
2023/09/19 03:38:55;;;;;;;;;;;22.00;1.00;;;;;;4920640;29;20014;-57
2023/09/19 03:41:22;;;;;;;;;;;22.00;1.00;;;;;;4920318;29;19927;-58
2023/09/19 03:43:49;;;;;;;;;;;22.00;1.00;;;;;;4920473;29;20419;-57
2023/09/19 03:46:16;;;;;;;;;;;21.90;1.00;;;;;;4937345;29;20021;-59
2023/09/19 03:48:43;;;;;;;;;;;22.00;1.00;;;;;;4920223;29;19997;-59
2023/09/19 03:51:10;;;;;;;;;;;21.90;1.00;;;;;;4920404;29;20038;-58
2023/09/19 03:53:37;;;;;;;;;;;21.90;1.00;;;;;;5010882;23;19927;-59
2023/09/19 03:56:04;;;;;;;;;;;21.90;1.00;;;;;;4955023;29;20428;-58
2023/09/19 03:58:34;;;;;;;;;;;21.90;1.00;;;;;;4954925;28;20017;-59
2023/09/19 04:01:01;;;;;;;;;;;21.90;1.00;;;;;;4956433;28;19933;-57
2023/09/19 04:03:35;;;;;;;;;;;21.90;1.00;;;;;;4955350;29;20378;-58
2023/09/19 04:06:02;;;;;;;;;;;21.90;1.00;;;;;;4956335;28;20415;-57
2023/09/19 04:08:29;;;;;;;;;;;21.90;1.00;;;;;;4953539;29;20017;-59
2023/09/19 04:10:56;;;;;;;;;;;21.90;1.00;;;;;;4947991;29;19933;-59
2023/09/19 04:13:23;;;;;;;;;;;21.90;1.00;;;;;;4949276;29;19926;-58
2023/09/19 04:15:50;;;;;;;;;;;21.90;1.00;;;;;;4963814;28;20378;-58
2023/09/19 04:18:17;;;;;;;;;;;21.90;1.00;;;;;;4942479;29;20393;-59
2023/09/19 04:20:49;;;;;;;;;;;21.90;1.00;;;;;;4946032;29;19942;-59
2023/09/19 04:26:07;;;;;;;;;;;21.90;1.00;;;;;;4951674;28;20287;-59
2023/09/19 04:28:34;;;;;;;;;;;21.80;1.00;;;;;;4932765;29;19926;-57
2023/09/19 04:31:01;;;;;;;;;;;21.80;1.00;;;;;;4937281;29;20395;-58
2023/09/19 04:33:28;;;;;;;;;;;21.80;1.00;;;;;;4936599;29;20410;-59
2023/09/19 04:35:56;;;;;;;;;;;21.80;1.00;;;;;;4936516;29;20047;-59
2023/09/19 04:38:29;;;;;;;;;;;21.80;1.00;;;;;;4936286;29;20017;-58
2023/09/19 04:40:59;;;;;;;;;;;21.80;1.00;;;;;;4936577;29;19927;-60
2023/09/19 04:43:26;;;;;;;;;;;21.80;1.00;;;;;;4936334;29;19930;-59
2023/09/19 04:45:55;;;;;;;;;;;21.80;1.00;;;;;;4936554;29;19934;-60
2023/09/19 04:48:24;;;;;;;;;;;21.80;1.00;;;;;;4935159;29;20581;-60
2023/09/19 04:50:51;;;;;;;;;;;21.80;1.00;;;;;;4934679;29;20356;-61
2023/09/19 04:53:20;;;;;;;;;;;21.70;1.00;;;;;;4936184;29;19982;-60
2023/09/19 04:58:29;;;;;;;;;;;21.70;1.00;;;;;;4955194;28;19973;-58
2023/09/19 05:00:56;;;;;;;;;;;21.70;1.00;;;;;;4955393;29;20275;-59
2023/09/19 05:03:23;;;;;;;;;;;21.70;1.00;;;;;;4955291;29;20386;-60
2023/09/19 05:05:50;;;;;;;;;;;21.70;1.00;;;;;;4955039;29;20457;-60
2023/09/19 05:08:17;;;;;;;;;;;21.70;1.00;;;;;;4955155;29;19932;-60
2023/09/19 05:10:43;;;;;;;;;;;21.70;1.00;;;;;;4953308;28;20334;-60
2023/09/19 05:13:11;;;;;;;;;;;21.70;1.00;;;;;;4955128;29;19926;-59
2023/09/19 05:15:39;;;;;;;;;;;21.70;1.00;;;;;;4954954;28;20357;-60
2023/09/19 05:18:06;;;;;;;;;;;21.70;1.00;;;;;;4954622;29;19926;-60
2023/09/19 05:20:34;;;;;;;;;;;21.70;1.00;;;;;;4953543;28;20017;-59
2023/09/19 05:23:07;;;;;;;;;;;21.70;1.00;;;;;;4954171;28;19934;-59
2023/09/19 05:25:38;;;;;;;;;;;21.70;1.00;;;;;;4954958;28;19997;-60
2023/09/19 05:30:54;;;;;;;;;;;21.60;1.00;;;;;;5102710;23;19933;-57
2023/09/19 05:33:21;;;;;;;;;;;21.60;1.00;;;;;;4954768;29;19954;-57
2023/09/19 05:35:48;;;;;;;;;;;21.60;1.00;;;;;;4954593;29;19938;-58
2023/09/19 05:38:18;;;;;;;;;;;21.60;1.00;;;;;;4935176;29;19926;-58
2023/09/19 05:40:45;;;;;;;;;;;21.60;1.00;;;;;;4935603;29;20405;-57
2023/09/19 05:43:14;;;;;;;;;;;21.60;1.00;;;;;;4935337;29;20014;-59
2023/09/19 05:45:41;;;;;;;;;;;21.60;1.00;;;;;;4935401;29;19926;-59
2023/09/19 05:48:13;;;;;;;;;;;21.60;1.00;;;;;;4935070;29;19927;-58
2023/09/19 05:50:40;;;;;;;;;;;21.60;1.00;;;;;;4935299;29;19986;-59
2023/09/19 05:53:06;;;;;;;;;;;21.60;1.00;;;;;;4935165;29;19977;-59
2023/09/19 05:55:33;;;;;;;;;;;21.60;1.00;;;;;;4935048;29;19926;-59
2023/09/19 05:58:00;;;;;;;;;;;21.60;1.00;;;;;;4930992;29;19927;-59
2023/09/19 06:00:27;;;;;;;;;;;21.60;1.00;;;;;;4935651;29;19962;-58
2023/09/19 06:02:55;;;;;;;;;;;21.60;1.00;;;;;;5141890;23;20021;-60
2023/09/19 06:05:22;;;;;;;;;;;21.60;1.00;;;;;;4954331;28;19927;-60
2023/09/19 06:07:50;;;;;;;;;;;21.50;1.00;;;;;;4953809;28;19927;-60
2023/09/19 06:10:17;;;;;;;;;;;21.50;1.00;;;;;;4954291;28;19958;-60
2023/09/19 06:12:44;;;;;;;;;;;21.50;1.00;;;;;;4954136;28;20398;-59
2023/09/19 06:15:15;;;;;;;;;;;21.50;1.00;;;;;;4954132;28;19926;-60
2023/09/19 06:17:55;;;;;;;;;;;21.50;1.00;;;;;;4953888;28;19943;-59
2023/09/19 06:20:23;;;;;;;;;;;21.50;1.00;;;;;;4954208;28;19927;-59
2023/09/19 06:22:50;;;;;;;;;;;21.50;1.00;;;;;;4953273;28;19961;-61
2023/09/19 06:25:20;;;;;;;;;;;21.50;1.00;;;;;;4954147;28;19926;-59
2023/09/19 06:27:53;;;;;;;;;;;21.50;1.00;;;;;;4953447;29;19977;-60
2023/09/19 06:30:21;;;;;;;;;;;21.50;1.00;;;;;;4954212;28;19944;-60
2023/09/19 06:32:48;;;;;;;;;;;21.50;1.00;;;;;;4953286;28;19930;-60
2023/09/19 06:35:15;;;;;;;;;;;21.50;1.00;;;;;;4954106;29;19977;-59
2023/09/19 06:37:43;;;;;;;;;;;21.50;1.00;;;;;;4953392;28;19936;-61
2023/09/19 06:40:14;;;;;;;;;;;21.50;1.00;;;;;;4954005;28;20394;-60
2023/09/19 06:42:46;;;;;;;;;;;21.50;1.00;;;;;;4953892;28;19927;-60
2023/09/19 06:45:17;;;;;;;;;;;21.50;1.00;;;;;;4953868;29;19926;-60
2023/09/19 06:47:51;;;;;;;;;;;21.50;1.00;;;;;;4953392;28;19981;-60
2023/09/19 06:50:21;;;;;;;;;;;21.50;1.00;;;;;;4953419;29;19926;-60
2023/09/19 06:52:53;;;;;;;;;;;21.50;1.00;;;;;;4953555;28;19930;-58
2023/09/19 06:55:24;;;;;;;;;;;21.50;1.00;;;;;;4953900;28;19926;-59
2023/09/19 06:57:54;;;;;;;;;;;21.50;1.00;;;;;;4953454;28;19930;-61
2023/09/19 07:00:25;;;;;;;;;;;21.50;1.00;;;;;;4953892;28;19933;-60
2023/09/19 07:03:00;;;;;;;;;;;21.50;1.00;;;;;;4971374;23;19926;-58
2023/09/19 07:05:27;;;;;;;;;;;21.50;1.00;;;;;;4953793;28;19932;-60
2023/09/19 07:07:55;;;;;;;;;;;21.50;1.00;;;;;;4953347;28;20009;-60
2023/09/19 07:10:23;;;;;;;;;;;21.50;1.00;;;;;;4953666;28;19981;-59
2023/09/19 07:13:10;;;;;;;;;;;21.50;1.00;;;;;;4953820;28;19927;-59
2023/09/19 07:15:46;;;;;;;;;;;21.50;1.00;;;;;;4953674;28;19926;-60
2023/09/19 07:18:14;;;;;;;;;;;21.50;1.00;;;;;;4953187;28;19969;-60
2023/09/19 07:20:45;;;;;;;;;;;21.50;1.00;;;;;;4953400;28;19926;-60
2023/09/19 07:23:13;;;;;;;;;;;21.40;1.00;;;;;;4953671;28;20013;-60
2023/09/19 07:25:41;;;;;;;;;;;21.50;1.00;;;;;;4953519;28;19927;-60
2023/09/19 07:28:07;;;;;;;;;;;21.40;1.00;;;;;;4953237;28;19934;-59
2023/09/19 07:30:36;;;;;;;;;;;21.40;1.00;;;;;;4953627;29;20013;-60
2023/09/19 07:35:56;;;;;;;;;;;21.40;1.00;;;;;;4972586;28;20332;-59
2023/09/19 07:38:24;;;;;;;;;;;21.40;1.00;;;;;;4956128;29;19927;-58
2023/09/19 07:40:51;;;;;;;;;;;21.50;1.00;;;;;;4956523;28;20386;-59
2023/09/19 07:43:18;;;;;;;;;;;21.40;1.00;;;;;;4956480;29;20026;-60
2023/09/19 07:45:44;;;;;;;;;;;21.40;1.00;;;;;;4956540;29;19970;-60
2023/09/19 07:48:14;;;;;;;;;;;21.40;1.00;;;;;;4955077;28;19927;-60
2023/09/19 07:50:43;;;;;;;;;;;21.50;1.00;;;;;;4956562;29;19985;-60
2023/09/19 07:53:13;;;;;;;;;;;21.40;1.00;;;;;;4956598;28;19937;-60
2023/09/19 07:55:40;;;;;;;;;;;21.40;1.00;;;;;;4956519;28;19931;-60
2023/09/19 07:58:08;;;;;;;;;;;21.50;1.00;;;;;;4956162;28;20013;-60
2023/09/19 08:00:34;;;;;;;;;;;21.40;1.00;;;;;;4956624;28;20302;-60
2023/09/19 08:03:03;;;;;;;;;;;21.40;1.00;;;;;;4956407;29;19926;-60
2023/09/19 08:08:30;;;;;;;;;;;21.40;1.00;;;;;;4915211;29;19933;-59
2023/09/19 08:10:57;;;;;;;;;;;21.40;1.00;;;;;;4918155;29;19927;-60
2023/09/19 08:13:24;;;;;;;;;;;21.40;1.00;;;;;;4918142;29;19934;-60
2023/09/19 08:15:53;;;;;;;;;;;21.40;1.00;;;;;;4917829;29;20021;-59
2023/09/19 08:18:22;;;;;;;;;;;21.50;1.00;;;;;;4917845;29;20355;-60
2023/09/19 08:20:50;;;;;;;;;;;21.40;1.00;;;;;;4938004;23;20484;-62
2023/09/19 08:23:20;;;;;;;;;;;21.40;1.00;;;;;;4936961;29;19933;-61
2023/09/19 08:25:47;;;;;;;;;;;21.40;1.00;;;;;;4936829;29;19950;-62
2023/09/19 08:28:18;;;;;;;;;;;21.40;1.00;;;;;;4917676;29;19934;-62
2023/09/19 08:30:45;;;;;;;;;;;21.40;1.00;;;;;;4917989;29;20312;-63
2023/09/19 08:33:15;;;;;;;;;;;21.40;1.00;;;;;;4917804;29;19970;-62
2023/09/19 08:35:42;;;;;;;;;;;21.40;1.00;;;;;;4918093;29;20387;-62
2023/09/19 08:41:05;;;;;;;;;;;21.40;1.00;;;;;;4934950;29;20343;-62
2023/09/19 08:43:34;;;;;;;;;;;21.40;1.00;;;;;;4936552;29;19926;-61
2023/09/19 08:46:07;;;;;;;;;;;21.50;1.00;;;;;;4934890;29;19927;-62
2023/09/19 08:48:37;;;;;;;;;;;21.40;1.00;;;;;;4917343;29;20391;-62
2023/09/19 08:51:07;;;;;;;;;;;21.40;1.00;;;;;;4918082;29;19927;-62
2023/09/19 08:53:34;;;;;;;;;;;21.50;1.00;;;;;;4917896;29;19962;-61
2023/09/19 08:56:03;;;;;;;;;;;21.50;1.00;;;;;;4917414;29;19927;-61
2023/09/19 08:58:33;;;;;;;;;;;21.50;1.00;;;;;;4917690;29;19978;-62
2023/09/19 09:01:01;;;;;;;;;;;21.50;1.00;;;;;;4917449;29;19928;-62
2023/09/19 09:03:32;;;;;;;;;;;21.50;1.00;;;;;;4917320;29;19927;-63
2023/09/19 09:05:59;;;;;;;;;;;21.50;1.00;;;;;;4917091;29;19934;-63
2023/09/19 09:08:26;;;;;;;;;;;21.50;1.00;;;;;;4917338;29;20394;-61
2023/09/19 09:13:57;;;;;;;;;;;21.50;1.00;;;;;;4894762;29;20019;-62
2023/09/19 09:16:26;;;;;;;;;;;21.50;1.00;;;;;;4898303;29;20489;-63
2023/09/19 09:18:54;;;;;;;;;;;21.50;1.00;;;;;;4897930;29;20005;-60
2023/09/19 09:21:22;;;;;;;;;;;21.50;1.00;;;;;;4898330;29;19931;-62
2023/09/19 09:23:51;;;;;;;;;;;21.50;1.00;;;;;;4898458;29;19928;-60
2023/09/19 09:26:38;;;;;;;;;;;21.60;1.00;;;;;;4898504;29;19970;-62
2023/09/19 09:29:04;;;;;;;;;;;21.60;1.00;;;;;;4898384;29;19927;-62
2023/09/19 09:31:31;;;;;;;;;;;21.60;1.00;;;;;;4891251;29;19927;-62
2023/09/19 09:33:58;;;;;;;;;;;21.60;1.00;;;;;;4899426;29;19928;-61
2023/09/19 09:36:36;;;;;;;;;;;21.60;1.00;;;;;;4898201;29;19950;-62
2023/09/19 09:39:15;;;;;;;;;;;21.60;1.00;;;;;;4897728;29;19963;-62
2023/09/19 09:41:43;;;;;;;;;;;21.60;1.00;;;;;;4939271;23;20060;-64
2023/09/19 09:44:17;;;;;;;;;;;21.60;1.00;;;;;;4935851;29;20025;-63
2023/09/19 09:49:33;;;;;;;;;;;21.60;1.00;;;;;;4935829;29;19934;-62
2023/09/19 09:52:01;;;;;;;;;;;21.60;1.00;;;;;;4935870;29;20701;-62
2023/09/19 09:54:33;;;;;;;;;;;21.60;1.00;;;;;;4935674;29;20429;-63
2023/09/19 09:57:01;;;;;;;;;;;21.60;1.00;;;;;;4935126;29;19934;-63
2023/09/19 09:59:46;;;;;;;;;;;21.60;1.00;;;;;;4935359;29;19926;-63
2023/09/19 10:02:20;;;;;;;;;;;21.60;1.00;;;;;;4935307;29;19937;-62
2023/09/19 10:07:35;;;;;;;;;;;21.60;1.00;;;;;;4935053;29;20406;-61
2023/09/19 10:15:37;;;;;;;;;;;21.60;1.00;;;;;;5129523;23;19934;-64
2023/09/19 10:18:04;;;;;;;;;;;21.60;1.00;;;;;;4934358;29;20407;-63
2023/09/19 10:22:59;;;;;;;;;;;21.70;1.00;;;;;;4935055;29;19937;-63
2023/09/19 10:25:28;;;;;;;;;;;21.70;1.00;;;;;;4935365;29;19933;-64
2023/09/19 10:27:57;;;;;;;;;;;21.70;1.00;;;;;;4934753;29;19933;-64
2023/09/19 10:30:24;;;;;;;;;;;21.70;1.00;;;;;;4935173;29;20462;-64
2023/09/19 10:32:57;;;;;;;;;;;21.70;1.00;;;;;;4934937;29;19927;-62
2023/09/19 10:35:24;;;;;;;;;;;21.70;1.00;;;;;;4935353;29;19927;-64
2023/09/19 10:37:51;;;;;;;;;;;21.70;1.00;;;;;;4914808;29;19931;-64
2023/09/19 10:40:20;;;;;;;;;;;21.70;1.00;;;;;;4934714;29;19931;-64
2023/09/19 10:42:48;;;;;;;;;;;21.70;1.00;;;;;;4935656;29;19927;-64
2023/09/19 10:45:18;;;;;;;;;;;21.70;1.00;;;;;;4998077;23;20738;-61
2023/09/19 10:47:46;;;;;;;;;;;21.70;1.00;;;;;;4916332;29;19934;-64
2023/09/19 10:50:21;;;;;;;;;;;21.70;1.00;;;;;;4917169;29;19927;-64
2023/09/19 10:52:58;;;;;;;;;;;21.70;1.00;;;;;;4917212;29;19953;-64
2023/09/19 10:55:27;;;;;;;;;;;21.70;1.00;;;;;;4917408;29;19966;-64
2023/09/19 10:57:57;;;;;;;;;;;21.70;1.00;;;;;;4916196;29;19951;-62
2023/09/19 11:00:27;;;;;;;;;;;21.70;1.00;;;;;;4908987;29;19935;-64
2023/09/19 11:03:14;;;;;;;;;;;21.70;1.00;;;;;;4916555;29;19927;-63
2023/09/19 11:05:41;;;;;;;;;;;21.70;1.00;;;;;;4917213;29;20276;-63
2023/09/19 11:08:11;;;;;;;;;;;21.70;1.00;;;;;;4917947;29;19966;-64
2023/09/19 11:10:44;;;;;;;;;;;21.70;1.00;;;;;;4920443;29;19982;-63
2023/09/19 11:13:34;;;;;;;;;;;21.70;1.00;;;;;;4920119;29;19927;-63
2023/09/19 11:18:52;;;;;;;;;;;21.70;1.00;;;;;;4917178;29;19949;-60
2023/09/19 11:21:29;;;;;;;;;;;21.70;1.00;;;;;;4919526;29;19927;-61
2023/09/19 11:24:24;;;;;;;;;;;21.70;1.00;;;;;;4919958;29;20030;-61
2023/09/19 11:26:53;;;;;;;;;;;21.70;1.00;;;;;;4919815;29;19934;-63
2023/09/19 11:29:26;;;;;;;;;;;21.70;1.00;;;;;;4919226;29;19927;-63
2023/09/19 11:31:56;;;;;;;;;;;21.70;1.00;;;;;;4919297;29;20331;-63
2023/09/19 11:34:35;;;;;;;;;;;21.70;1.00;;;;;;4919616;29;19930;-63
2023/09/19 11:37:22;;;;;;;;;;;21.70;1.00;;;;;;4919323;29;20202;-63
2023/09/19 11:40:15;;;;;;;;;;;21.70;1.00;;;;;;4909067;29;19942;-62
2023/09/19 11:42:50;;;;;;;;;;;21.70;1.00;;;;;;4913444;29;19927;-62
2023/09/19 11:45:35;;;;;;;;;;;21.70;1.00;;;;;;4919474;29;19927;-63
2023/09/19 11:50:59;;;;;;;;;;;21.70;1.00;;;;;;4978046;23;19934;-63
2023/09/19 11:53:32;;;;;;;;;;;21.70;1.00;;;;;;4937832;29;20021;-62
2023/09/19 11:56:00;;;;;;;;;;;21.70;1.00;;;;;;4937057;29;19934;-64
2023/09/19 11:58:29;;;;;;;;;;;21.70;1.00;;;;;;4918581;29;19959;-64
2023/09/19 12:00:58;;;;;;;;;;;21.70;1.00;;;;;;4919209;29;19927;-62
2023/09/19 12:03:29;;;;;;;;;;;21.70;1.00;;;;;;4918682;29;20307;-60
2023/09/19 12:05:58;;;;;;;;;;;21.70;1.00;;;;;;4918997;29;20018;-62
2023/09/19 12:08:27;;;;;;;;;;;21.70;1.00;;;;;;4918895;29;20018;-61
2023/09/19 12:10:55;;;;;;;;;;;21.70;1.00;;;;;;4918825;29;20288;-62
2023/09/19 12:13:21;;;;;;;;;;;21.70;1.00;;;;;;4918750;29;19927;-62
2023/09/19 12:15:49;;;;;;;;;;;21.70;1.00;;;;;;4918450;29;19931;-61
2023/09/19 12:18:28;;;;;;;;;;;21.70;1.00;;;;;;4918161;29;19926;-61
2023/09/19 12:23:41;;;;;;;;;;;21.70;1.00;;;;;;4935910;29;19934;-61
2023/09/19 12:26:12;;;;;;;;;;;21.70;1.00;;;;;;4920237;29;19935;-61
2023/09/19 12:28:42;;;;;;;;;;;21.70;1.00;;;;;;4937181;29;19934;-59
2023/09/19 12:31:08;;;;;;;;;;;21.70;1.00;;;;;;4937382;29;19927;-61
2023/09/19 12:33:36;;;;;;;;;;;21.80;1.00;;;;;;4937717;29;20029;-62
2023/09/19 12:36:21;;;;;;;;;;;21.70;1.00;;;;;;4937516;29;20014;-62
2023/09/19 12:38:49;;;;;;;;;;;21.80;1.00;;;;;;4936873;29;19927;-58
2023/09/19 12:41:15;;;;;;;;;;;21.80;1.00;;;;;;4937521;29;19974;-62
2023/09/19 12:43:42;;;;;;;;;;;21.80;1.00;;;;;;4936611;29;19926;-62
2023/09/19 12:46:10;;;;;;;;;;;21.80;1.00;;;;;;4936531;29;19938;-64
2023/09/19 12:48:37;;;;;;;;;;;21.70;1.00;;;;;;4936711;29;19927;-62
2023/09/19 12:51:05;;;;;;;;;;;21.80;1.00;;;;;;4937252;29;19933;-60
2023/09/19 12:53:37;;;;;;;;;;;21.80;1.00;;;;;;5134191;23;20021;-62
2023/09/19 12:56:07;;;;;;;;;;;21.80;1.00;;;;;;4917883;29;19927;-61
2023/09/19 12:58:47;;;;;;;;;;;21.80;1.00;;;;;;4910001;29;20450;-62
2023/09/19 13:01:15;;;;;;;;;;;21.80;1.00;;;;;;4917498;29;20014;-61
2023/09/19 13:03:42;;;;;;;;;;;21.80;1.00;;;;;;4917609;29;19928;-64
2023/09/19 13:06:09;;;;;;;;;;;21.80;1.00;;;;;;4917659;29;20339;-63
2023/09/19 13:08:41;;;;;;;;;;;21.80;1.00;;;;;;4917381;29;19927;-62
2023/09/19 13:11:12;;;;;;;;;;;21.80;1.00;;;;;;4900204;29;20295;-61
2023/09/19 13:13:39;;;;;;;;;;;21.80;1.00;;;;;;4917511;29;20406;-61
2023/09/19 13:16:08;;;;;;;;;;;21.80;1.00;;;;;;4917551;29;19999;-62
2023/09/19 13:18:50;;;;;;;;;;;21.80;1.00;;;;;;4917047;29;19933;-62
2023/09/19 13:21:26;;;;;;;;;;;21.80;1.00;;;;;;4917276;29;20284;-63
2023/09/19 13:23:58;;;;;;;;;;;21.80;1.00;;;;;;4917321;29;20010;-62
2023/09/19 13:26:56;;;;;;;;;;;21.80;1.00;;;;;;4916071;29;20343;-61
2023/09/19 13:29:23;;;;;;;;;;;21.80;1.00;;;;;;4916771;29;20033;-61
2023/09/19 13:31:51;;;;;;;;;;;21.80;1.00;;;;;;4916658;29;19928;-59
2023/09/19 13:34:17;;;;;;;;;;;21.80;1.00;;;;;;4916828;29;19933;-61
2023/09/19 13:36:44;;;;;;;;;;;21.80;1.00;;;;;;4916531;29;19927;-61
2023/09/19 13:39:13;;;;;;;;;;;21.80;1.00;;;;;;4916535;29;19927;-61
2023/09/19 13:41:39;;;;;;;;;;;21.80;1.00;;;;;;4916595;29;19934;-61
2023/09/19 13:44:06;;;;;;;;;;;21.80;1.00;;;;;;4916963;29;19927;-61
2023/09/19 13:46:35;;;;;;;;;;;21.80;1.00;;;;;;4916464;29;19931;-61
2023/09/19 13:49:03;;;;;;;;;;;21.80;1.00;;;;;;4916827;29;19934;-62
2023/09/19 13:51:32;;;;;;;;;;;21.80;1.00;;;;;;4916844;29;20307;-62
2023/09/19 13:53:59;;;;;;;;;;;21.80;1.00;;;;;;4917455;29;19934;-62
2023/09/19 13:56:30;;;;;;;;;;;21.80;1.00;;;;;;4988435;23;19973;-62
2023/09/19 13:58:57;;;;;;;;;;;21.80;1.00;;;;;;4910176;29;19934;-62
2023/09/19 14:01:26;;;;;;;;;;;21.80;1.00;;;;;;4918408;29;20026;-63
2023/09/19 14:03:55;;;;;;;;;;;21.80;1.00;;;;;;4917290;29;19937;-62
2023/09/19 14:06:22;;;;;;;;;;;21.80;1.00;;;;;;4916910;29;20021;-62
2023/09/19 14:08:49;;;;;;;;;;;21.80;1.00;;;;;;4917282;29;20021;-64
2023/09/19 14:11:16;;;;;;;;;;;21.80;1.00;;;;;;4916976;29;20022;-64
2023/09/19 14:13:48;;;;;;;;;;;21.80;1.00;;;;;;4917136;29;19958;-64
2023/09/19 14:16:16;;;;;;;;;;;21.80;1.00;;;;;;4917307;29;19966;-64
2023/09/19 14:18:44;;;;;;;;;;;21.80;1.00;;;;;;4917378;29;20033;-64
2023/09/19 14:21:11;;;;;;;;;;;21.80;1.00;;;;;;4913399;29;19927;-64
2023/09/19 14:23:38;;;;;;;;;;;21.80;1.00;;;;;;4910288;29;20351;-64
2023/09/19 14:28:54;;;;;;;;;;;21.80;1.00;;;;;;5009019;23;19964;-63
2023/09/19 14:31:21;;;;;;;;;;;21.80;1.00;;;;;;4890278;29;19936;-63
2023/09/19 14:33:53;;;;;;;;;;;21.80;1.00;;;;;;4885362;29;19935;-63
2023/09/19 14:36:21;;;;;;;;;;;21.80;1.00;;;;;;4881303;29;20026;-63
2023/09/19 14:38:53;;;;;;;;;;;21.80;1.00;;;;;;4872534;29;19976;-60
2023/09/19 14:41:20;;;;;;;;;;;21.80;1.00;;;;;;4871699;29;20003;-62
2023/09/19 14:43:47;;;;;;;;;;;21.80;1.00;;;;;;4880462;29;19931;-62
2023/09/19 14:46:14;;;;;;;;;;;21.80;1.00;;;;;;4877974;29;20060;-71
2023/09/19 14:48:41;;;;;;;;;;;21.80;1.00;;;;;;4880109;29;19967;-70
2023/09/19 14:51:09;;;;;;;;;;;21.80;1.00;;;;;;4874434;29;19935;-70
2023/09/19 14:53:37;;;;;;;;;;;21.80;1.00;;;;;;4883522;29;20022;-71
2023/09/19 14:56:05;;;;;;;;;;;21.80;1.00;;;;;;4882182;29;20014;-71
2023/09/19 15:01:19;;;;;;;;;;;21.80;1.00;;;;;;4927860;29;19928;-60
2023/09/19 15:06:39;;;;;;;;;;;21.80;1.00;;;;;;5433360;23;19953;-50
2023/09/19 15:09:08;;;;;;;;;;;21.90;1.00;;;;;;4926692;29;19977;-49
2023/09/19 15:11:35;;;;;;;;;;;21.80;1.00;;;;;;4922273;29;19933;-51
2023/09/19 15:14:03;;;;;;;;;;;21.80;1.00;;;;;;4923256;29;20321;-50
2023/09/19 15:16:30;;;;;;;;;;;21.80;1.00;;;;;;4920295;29;20469;-50
2023/09/19 15:18:57;;;;;;;;;;;21.80;1.00;;;;;;4910437;29;19942;-54
2023/09/19 15:21:24;;;;;;;;;;;21.80;1.00;;;;;;4911535;29;19931;-50
2023/09/19 15:23:51;;;;;;;;;;;21.80;1.00;;;;;;4908088;29;19954;-49
2023/09/19 15:26:20;;;;;;;;;;;21.90;1.00;;;;;;4912974;29;19927;-50
2023/09/19 15:28:48;;;;;;;;;;;21.80;1.00;;;;;;4914380;29;19931;-49
2023/09/19 15:31:15;;;;;;;;;;;21.90;1.00;;;;;;4910473;29;19931;-52
2023/09/19 15:33:41;;;;;;;;;;;21.90;1.00;;;;;;4917084;29;19942;-49
2023/09/19 15:36:12;;;;;;;;;;;21.90;1.00;;;;;;4904523;29;19983;-53
2023/09/19 15:38:57;;;;;;;;;;;21.90;1.00;;;;;;4912933;29;19933;-50
2023/09/19 15:41:24;;;;;;;;;;;21.80;1.00;;;;;;4904189;29;19977;-49